Airfield :
LOGIN :

Register | Disclaimer

   EN    FR    IT 

 










Legend :    VFR   Marginal VFR   IFR   Intensive IFR   Very Intensive IFR
Visi :
Ceiling :
>= 8 km
>= 3000ft
5 to 8 km
1000 to 3000 ft
1500m to 5 km
500 to 1000 ft
800 to 1500m
200 to 500 ft
< 800m
< 200 ft
Symbols :   Thunderstorms  Fog  Heavy snow  Heavy precipitations  Wind > 20 kt
SIGMETs :     Misc.  Thunderstorms  Icing  Turbulence  Mountain Waves  Volcanic Ashes






- Airport Elevation : 526 ft
- IATA code : LTN


EGGW - London Luton

CURRENT METAR :
  • 291320Z AUTO 19008KT 130V230 9999 SCT034 21/11 Q1011

EXPIRED METARs :
  • 291250Z AUTO 21010KT 160V230 9999 FEW032 20/10 Q1011
  • 291220Z AUTO 19007KT 130V220 9999 FEW025 OVC046 19/11 Q1012
  • 291150Z AUTO 20008KT 150V230 9999 OVC039 19/11 Q1012
  • 291120Z AUTO 22008KT 9999 FEW022 BKN028 OVC039 18/12 Q1012
  • 291050Z AUTO 20006KT 130V250 9999 BKN021/// BKN029/// OVC041/// //////TCU 18/12 Q1012

TAF TAF EGGW
Valid from the 29 at 12:00 until the 30 at 12:00 UTC


291101Z 2912/3012 23012KT 9999 SCT025
PROB30
TEMPO 2912/2917 7000 SHRA
PROB30
TEMPO 2922/3001 7000 SHRA BKN012
PROB30
TEMPO 3010/3012 7000 SHRA
ATIS : +44 1582 395 204



MET'MAP, your aeronautical weather chart ! - Copyright ORBIFLY December 2007 - Disclaimer

ORBIFLY MET'MAP TEAM :

Programming & Development : Alexandra Zaïnal
Original concept : Baudouin d'Aumeries
Technical & hardware support : Manuel Goepfert
Assistance : Marc-Olivier Méhu




SOURCES & CREDITS :

   NOAA